createdAt,value
2019-03-28T00:01:04.963Z,99.90
2019-03-28T00:03:31.268Z,99.90
2019-03-28T00:05:58.123Z,99.90
2019-03-28T00:08:24.760Z,99.90
2019-03-28T00:10:51.158Z,99.90
2019-03-28T00:13:17.626Z,99.90
2019-03-28T00:15:44.001Z,99.90
2019-03-28T00:18:10.276Z,99.90
2019-03-28T00:20:36.546Z,99.90
2019-03-28T00:23:19.823Z,99.90
2019-03-28T00:25:46.386Z,99.90
2019-03-28T00:28:12.773Z,99.90
2019-03-28T00:30:39.308Z,99.90
2019-03-28T00:33:05.660Z,99.90
2019-03-28T00:35:31.961Z,99.90
2019-03-28T00:37:58.441Z,99.90
2019-03-28T00:40:24.947Z,99.90
2019-03-28T00:42:52.500Z,99.90
2019-03-28T00:45:18.814Z,99.90
2019-03-28T00:47:45.186Z,99.90
2019-03-28T00:50:11.974Z,99.90
2019-03-28T00:52:38.478Z,99.90
2019-03-28T00:55:05.365Z,99.90
2019-03-28T00:57:31.756Z,99.90
2019-03-28T00:59:58.241Z,99.90
2019-03-28T01:02:24.785Z,99.90
2019-03-28T01:04:52.077Z,99.90
2019-03-28T01:07:18.619Z,99.90
2019-03-28T01:09:45.189Z,99.90
2019-03-28T01:12:12.841Z,99.90
2019-03-28T01:14:39.233Z,99.90
2019-03-28T01:17:05.797Z,99.90
2019-03-28T01:19:32.281Z,99.90
2019-03-28T01:21:58.685Z,99.90
2019-03-28T01:24:25.234Z,99.90
2019-03-28T01:26:57.238Z,99.90
2019-03-28T01:29:20.021Z,99.90
2019-03-28T01:31:46.425Z,99.90
2019-03-28T01:34:13.083Z,99.90
2019-03-28T01:36:39.644Z,99.90
2019-03-28T01:39:06.205Z,99.90
2019-03-28T01:41:33.386Z,99.90
2019-03-28T01:43:59.760Z,99.90
2019-03-28T01:46:26.359Z,99.90
2019-03-28T01:48:52.813Z,99.90
2019-03-28T01:51:19.209Z,99.90
2019-03-28T01:53:45.556Z,99.90
2019-03-28T01:56:12.033Z,99.90
2019-03-28T01:58:38.594Z,99.90
2019-03-28T02:01:05.167Z,99.90
2019-03-28T02:03:31.520Z,99.90
2019-03-28T02:05:57.913Z,99.90
2019-03-28T02:08:25.032Z,99.90
2019-03-28T02:10:51.450Z,99.90
2019-03-28T02:13:17.903Z,99.90
2019-03-28T02:15:44.292Z,99.90
2019-03-28T02:18:10.800Z,99.90
2019-03-28T02:20:37.262Z,99.90
2019-03-28T02:23:03.707Z,99.90
2019-03-28T02:25:30.084Z,99.90
2019-03-28T02:27:56.468Z,99.90
2019-03-28T02:30:30.420Z,99.90
2019-03-28T02:32:56.702Z,99.90
2019-03-28T02:35:23.032Z,99.90
2019-03-28T02:37:49.317Z,99.90
2019-03-28T02:40:16.743Z,99.90
2019-03-28T02:42:43.316Z,99.90
2019-03-28T02:45:10.410Z,99.90
2019-03-28T02:47:38.439Z,99.90
2019-03-28T02:50:06.233Z,99.90
2019-03-28T02:52:32.726Z,99.90
2019-03-28T02:54:59.235Z,99.90
2019-03-28T02:57:40.268Z,99.90
2019-03-28T02:59:54.652Z,99.90
2019-03-28T03:02:21.580Z,99.90
2019-03-28T03:04:48.075Z,99.90
2019-03-28T03:07:14.465Z,99.90
2019-03-28T03:09:40.937Z,99.90
2019-03-28T03:12:07.454Z,99.90
2019-03-28T03:14:33.968Z,99.90
2019-03-28T03:17:00.452Z,99.90
2019-03-28T03:19:26.717Z,99.90
2019-03-28T03:21:53.212Z,99.90
2019-03-28T03:24:19.824Z,99.90
2019-03-28T03:26:46.280Z,99.90
2019-03-28T03:29:12.769Z,99.90
2019-03-28T03:31:39.262Z,99.90
2019-03-28T03:34:06.451Z,99.90
2019-03-28T03:36:32.837Z,99.90
2019-03-28T03:38:59.336Z,99.90
2019-03-28T03:41:25.698Z,99.90
2019-03-28T03:43:52.251Z,99.90
2019-03-28T03:46:18.765Z,99.90
2019-03-28T03:48:45.297Z,99.90
2019-03-28T03:51:11.744Z,99.90
2019-03-28T03:53:38.000Z,99.90
2019-03-28T03:56:04.434Z,99.90
2019-03-28T03:58:30.939Z,99.90
2019-03-28T04:00:57.302Z,99.90
2019-03-28T04:03:23.906Z,99.90
2019-03-28T04:05:50.328Z,99.90
2019-03-28T04:08:16.854Z,99.90
2019-03-28T04:10:43.239Z,99.90
2019-03-28T04:13:10.680Z,99.90
2019-03-28T04:15:38.043Z,99.90
2019-03-28T04:18:04.678Z,99.90
2019-03-28T04:20:31.205Z,99.90
2019-03-28T04:22:57.615Z,99.90
2019-03-28T04:25:26.003Z,99.90
2019-03-28T04:27:52.520Z,99.90
2019-03-28T04:30:19.071Z,99.90
2019-03-28T04:32:45.518Z,99.90
2019-03-28T04:35:13.162Z,99.90
2019-03-28T04:37:39.533Z,99.90
2019-03-28T04:40:06.860Z,99.90
2019-03-28T04:42:33.366Z,99.90
2019-03-28T04:44:59.743Z,99.90
2019-03-28T04:47:26.033Z,99.90
2019-03-28T04:49:52.510Z,99.90
2019-03-28T04:52:19.421Z,99.90
2019-03-28T04:54:46.029Z,99.90
2019-03-28T04:57:12.669Z,99.90
2019-03-28T04:59:39.260Z,99.90
2019-03-28T05:02:05.772Z,99.90
2019-03-28T05:04:32.200Z,99.90
2019-03-28T05:06:58.617Z,99.90
2019-03-28T05:09:25.347Z,99.90
2019-03-28T05:11:51.755Z,99.90
2019-03-28T05:14:18.215Z,99.90
2019-03-28T05:16:44.497Z,99.90
2019-03-28T05:19:10.881Z,99.90
2019-03-28T05:21:37.404Z,99.90
2019-03-28T05:24:03.881Z,99.90
2019-03-28T05:26:30.249Z,99.90
2019-03-28T05:28:58.025Z,99.90
2019-03-28T05:31:25.079Z,99.90
2019-03-28T05:33:51.425Z,99.90
2019-03-28T05:36:18.507Z,99.90
2019-03-28T05:38:45.226Z,99.90
2019-03-28T05:41:11.622Z,99.90
2019-03-28T05:43:38.303Z,99.90
2019-03-28T05:46:04.785Z,99.90
2019-03-28T05:48:31.332Z,99.90
2019-03-28T05:50:57.765Z,99.90
2019-03-28T05:53:24.163Z,99.90
2019-03-28T05:55:50.803Z,99.90
2019-03-28T05:58:17.250Z,99.90
2019-03-28T06:00:43.896Z,99.90
2019-03-28T06:03:10.444Z,99.90
2019-03-28T06:05:37.045Z,99.90
2019-03-28T06:08:03.620Z,99.90
2019-03-28T06:10:30.024Z,99.90
2019-03-28T06:12:56.644Z,99.90
2019-03-28T06:15:23.070Z,99.90
2019-03-28T06:17:49.550Z,99.90
2019-03-28T06:20:16.022Z,99.90
2019-03-28T06:22:42.532Z,99.90
2019-03-28T06:25:09.168Z,99.90
2019-03-28T06:27:35.541Z,99.90
2019-03-28T06:30:02.955Z,99.90
2019-03-28T06:32:41.998Z,99.90
2019-03-28T06:34:57.674Z,99.90
2019-03-28T06:37:24.157Z,99.90
2019-03-28T06:39:50.630Z,99.90
2019-03-28T06:42:17.244Z,99.90
2019-03-28T06:44:43.623Z,99.90
2019-03-28T06:47:10.252Z,99.90
2019-03-28T06:49:36.764Z,99.90
2019-03-28T06:52:03.249Z,99.90
2019-03-28T06:54:30.558Z,99.90
2019-03-28T06:56:57.507Z,99.90
2019-03-28T06:59:36.260Z,99.90
2019-03-28T07:01:53.218Z,99.90
2019-03-28T07:04:19.737Z,99.90
2019-03-28T07:06:46.248Z,99.90
2019-03-28T07:09:12.710Z,99.90
2019-03-28T07:11:39.553Z,99.90
2019-03-28T07:14:06.225Z,99.90
2019-03-28T07:16:32.706Z,99.90
2019-03-28T07:18:59.213Z,99.90
2019-03-28T07:21:25.538Z,99.90
2019-03-28T07:23:52.084Z,99.90
2019-03-28T07:26:18.582Z,99.90
2019-03-28T07:28:44.967Z,99.90
2019-03-28T07:31:11.438Z,99.90
2019-03-28T07:33:37.722Z,99.90
2019-03-28T07:36:04.236Z,99.90
2019-03-28T07:38:30.673Z,99.90
2019-03-28T07:40:57.235Z,99.90
2019-03-28T07:43:25.245Z,99.90
2019-03-28T07:45:52.040Z,99.90
2019-03-28T07:48:18.430Z,99.90
2019-03-28T07:50:47.053Z,99.90
2019-03-28T07:53:13.567Z,99.90
2019-03-28T07:55:40.994Z,99.90
2019-03-28T07:58:08.610Z,99.90
2019-03-28T08:00:35.761Z,99.90
2019-03-28T08:03:02.266Z,99.90
2019-03-28T08:05:28.848Z,99.90
2019-03-28T08:07:55.788Z,99.90
2019-03-28T08:10:22.294Z,99.90
2019-03-28T08:12:48.856Z,99.90
2019-03-28T08:15:15.356Z,99.90
2019-03-28T08:17:41.780Z,99.90
2019-03-28T08:20:10.099Z,99.90
2019-03-28T08:22:36.615Z,99.90
2019-03-28T08:25:10.896Z,99.90
2019-03-28T08:27:35.167Z,99.90
2019-03-28T08:30:01.965Z,99.90
2019-03-28T08:32:28.481Z,99.90
2019-03-28T08:34:54.943Z,99.90
2019-03-28T08:37:21.553Z,99.90
2019-03-28T08:39:48.046Z,99.90
2019-03-28T08:42:14.408Z,99.90
2019-03-28T08:44:41.073Z,99.90
2019-03-28T08:47:07.673Z,99.90
2019-03-28T08:49:34.281Z,99.90
2019-03-28T08:52:00.808Z,99.90
2019-03-28T08:54:27.294Z,99.60
2019-03-28T08:56:53.824Z,98.70
2019-03-28T08:59:20.603Z,98.20
2019-03-28T09:01:46.993Z,97.20
2019-03-28T09:04:13.496Z,96.30
2019-03-28T09:06:40.211Z,95.70
2019-03-28T09:09:08.797Z,95.10
2019-03-28T09:11:35.185Z,94.90
2019-03-28T09:14:01.764Z,94.40
2019-03-28T09:16:28.128Z,94.20
2019-03-28T09:18:54.519Z,93.80
2019-03-28T09:21:20.930Z,93.20
2019-03-28T09:23:47.316Z,93.10
2019-03-28T09:26:13.788Z,93.20
2019-03-28T09:28:45.721Z,93.60
2019-03-28T09:31:19.683Z,94.20
2019-03-28T09:33:42.508Z,94.90
2019-03-28T09:36:09.074Z,95.30
2019-03-28T09:38:35.532Z,95.50
2019-03-28T09:41:02.046Z,96.20
2019-03-28T09:43:28.812Z,96.70
2019-03-28T09:45:55.357Z,97.10
2019-03-28T09:48:21.994Z,97.50
2019-03-28T09:50:48.504Z,97.50
2019-03-28T09:53:15.109Z,97.80
2019-03-28T09:55:41.958Z,98.50
2019-03-28T09:58:08.536Z,98.70
2019-03-28T10:00:35.004Z,98.90
2019-03-28T10:03:01.494Z,99.00
2019-03-28T10:05:28.172Z,99.20
2019-03-28T10:08:00.480Z,99.40
2019-03-28T10:10:26.991Z,99.40
2019-03-28T10:12:55.031Z,99.60
2019-03-28T10:15:21.579Z,99.70
2019-03-28T10:17:50.113Z,99.90
2019-03-28T10:20:16.485Z,99.90
2019-03-28T10:22:42.894Z,99.90
2019-03-28T10:25:12.637Z,99.90
2019-03-28T10:27:42.284Z,99.90
2019-03-28T10:30:09.669Z,99.90
2019-03-28T10:32:36.244Z,99.90
2019-03-28T10:35:06.720Z,99.90
2019-03-28T10:37:31.630Z,99.90
2019-03-28T10:39:58.297Z,99.90
2019-03-28T10:42:24.682Z,99.80
2019-03-28T10:44:52.111Z,99.90
2019-03-28T10:47:18.685Z,99.80
2019-03-28T10:49:45.446Z,99.90
2019-03-28T10:52:12.180Z,99.70
2019-03-28T10:54:38.651Z,99.60
2019-03-28T10:57:13.611Z,99.50
2019-03-28T10:59:35.333Z,99.90
2019-03-28T11:02:05.653Z,99.70
2019-03-28T11:04:32.263Z,99.30
2019-03-28T11:06:58.748Z,99.20
2019-03-28T11:09:25.136Z,99.20
2019-03-28T11:11:51.592Z,99.20
2019-03-28T11:14:19.095Z,99.20
2019-03-28T11:16:48.069Z,99.20
2019-03-28T11:19:15.924Z,99.10
2019-03-28T11:21:43.434Z,98.70
2019-03-28T11:24:12.279Z,98.80
2019-03-28T11:26:40.129Z,98.90
2019-03-28T11:29:07.787Z,99.20
2019-03-28T11:31:45.745Z,99.40
2019-03-28T11:34:03.493Z,99.60
2019-03-28T11:36:29.905Z,99.90
2019-03-28T11:38:56.458Z,99.90
2019-03-28T11:41:22.905Z,99.90
2019-03-28T11:43:49.593Z,99.90
2019-03-28T11:46:16.131Z,99.90
2019-03-28T11:48:42.598Z,99.90
2019-03-28T11:51:09.175Z,99.90
2019-03-28T11:53:35.665Z,99.90
2019-03-28T11:56:05.733Z,99.90
2019-03-28T11:58:33.095Z,99.90
2019-03-28T12:01:00.585Z,99.90
2019-03-28T12:03:28.143Z,99.90
2019-03-28T12:05:54.676Z,99.90
2019-03-28T12:08:21.173Z,99.90
2019-03-28T12:10:47.472Z,99.90
2019-03-28T12:13:14.112Z,99.90
2019-03-28T12:15:40.599Z,99.90
2019-03-28T12:18:07.125Z,99.90
2019-03-28T12:20:33.496Z,99.90
2019-03-28T12:22:59.775Z,99.90
2019-03-28T12:25:26.172Z,99.90
2019-03-28T12:27:52.633Z,99.90
2019-03-28T12:30:19.430Z,99.90
2019-03-28T12:32:46.168Z,99.90
2019-03-28T12:35:12.842Z,99.90
2019-03-28T12:37:40.334Z,99.90
2019-03-28T12:40:09.467Z,99.90
2019-03-28T12:42:36.258Z,99.90
2019-03-28T12:45:08.068Z,99.90
2019-03-28T12:47:42.335Z,99.90
2019-03-28T12:50:05.773Z,99.90
2019-03-28T12:52:32.196Z,99.90
2019-03-28T12:54:58.605Z,99.90
2019-03-28T12:57:25.489Z,99.90
2019-03-28T12:59:53.698Z,99.90
2019-03-28T13:02:29.867Z,99.90
2019-03-28T13:04:48.723Z,99.90
2019-03-28T13:07:15.398Z,99.90
2019-03-28T13:09:41.991Z,99.90
2019-03-28T13:12:08.554Z,99.90
2019-03-28T13:14:35.411Z,99.90
2019-03-28T13:17:01.988Z,99.90
2019-03-28T13:19:31.364Z,99.90
2019-03-28T13:21:57.773Z,99.90
2019-03-28T13:24:26.629Z,99.90
2019-03-28T13:26:53.066Z,99.90
2019-03-28T13:29:19.574Z,99.30
2019-03-28T13:31:45.867Z,98.90
2019-03-28T13:34:13.672Z,99.00
2019-03-28T13:36:41.929Z,98.40
2019-03-28T13:39:08.427Z,98.60
2019-03-28T13:41:35.018Z,98.10
2019-03-28T13:44:01.666Z,98.60
2019-03-28T13:46:28.379Z,99.00
2019-03-28T13:48:54.829Z,99.50
2019-03-28T13:51:26.537Z,99.90
2019-03-28T13:53:53.830Z,99.90
2019-03-28T13:56:20.514Z,99.90
2019-03-28T13:58:47.361Z,99.90
2019-03-28T14:01:13.676Z,99.90
2019-03-28T14:03:40.271Z,99.90
2019-03-28T14:06:06.749Z,99.90
2019-03-28T14:08:33.281Z,99.90
2019-03-28T14:10:59.779Z,99.90
2019-03-28T14:13:26.373Z,99.90
2019-03-28T14:15:53.332Z,99.90
2019-03-28T14:18:19.868Z,99.90
2019-03-28T14:20:46.364Z,99.90
2019-03-28T14:23:12.842Z,99.90
2019-03-28T14:25:39.379Z,99.90
2019-03-28T14:28:05.881Z,99.90
2019-03-28T14:30:32.410Z,99.90
2019-03-28T14:33:10.446Z,99.90
2019-03-28T14:35:27.428Z,99.90
2019-03-28T14:37:55.867Z,99.90
2019-03-28T14:40:22.583Z,99.90
2019-03-28T14:42:48.870Z,99.90
2019-03-28T14:45:15.454Z,99.90
2019-03-28T14:47:41.840Z,99.90
2019-03-28T14:50:08.861Z,99.90
2019-03-28T14:52:35.477Z,99.90
2019-03-28T14:55:02.320Z,99.90
2019-03-28T14:57:29.425Z,99.90
2019-03-28T14:59:56.508Z,99.90
2019-03-28T15:02:22.797Z,99.90
2019-03-28T15:04:49.319Z,99.90
2019-03-28T15:07:19.850Z,99.90
2019-03-28T15:09:46.334Z,99.90
2019-03-28T15:12:13.029Z,99.90
2019-03-28T15:14:39.526Z,99.90
2019-03-28T15:17:06.196Z,99.90
2019-03-28T15:19:32.716Z,99.90
2019-03-28T15:21:59.448Z,99.90
2019-03-28T15:24:25.886Z,99.90
2019-03-28T15:26:54.804Z,99.90
2019-03-28T15:29:21.227Z,99.90
2019-03-28T15:31:47.742Z,99.90
2019-03-28T15:34:14.296Z,99.90
2019-03-28T15:36:42.198Z,99.90
2019-03-28T15:39:08.807Z,99.90
2019-03-28T15:41:35.734Z,99.90
2019-03-28T15:44:02.233Z,99.90
2019-03-28T15:46:28.818Z,99.90
2019-03-28T15:48:55.236Z,99.90
2019-03-28T15:51:21.842Z,99.90
2019-03-28T15:53:48.310Z,99.90
2019-03-28T15:56:14.844Z,99.90
2019-03-28T15:58:41.320Z,99.90
2019-03-28T16:01:08.017Z,99.90
2019-03-28T16:03:34.501Z,99.90
2019-03-28T16:06:00.991Z,99.90
2019-03-28T16:08:27.856Z,99.90
2019-03-28T16:10:54.637Z,99.90
2019-03-28T16:13:22.745Z,99.90
2019-03-28T16:15:49.646Z,99.90
2019-03-28T16:18:16.259Z,99.90
2019-03-28T16:20:42.887Z,99.90
2019-03-28T16:23:09.579Z,99.90
2019-03-28T16:25:36.123Z,99.90
2019-03-28T16:28:02.519Z,99.90
2019-03-28T16:30:36.621Z,99.90
2019-03-28T16:33:03.447Z,99.90
2019-03-28T16:35:31.353Z,99.90
2019-03-28T16:37:58.106Z,99.90
2019-03-28T16:40:24.947Z,99.90
2019-03-28T16:42:51.434Z,99.90
2019-03-28T16:45:18.178Z,99.90
2019-03-28T16:47:44.586Z,99.90
2019-03-28T16:50:11.121Z,99.90
2019-03-28T16:52:37.543Z,99.90
2019-03-28T16:55:05.524Z,99.90
2019-03-28T16:57:32.067Z,99.90
2019-03-28T16:59:58.445Z,99.90
2019-03-28T17:02:26.968Z,99.90
2019-03-28T17:04:53.388Z,99.90
2019-03-28T17:07:20.311Z,99.90
2019-03-28T17:09:48.747Z,99.90
2019-03-28T17:12:15.669Z,99.90
2019-03-28T17:14:42.361Z,99.90
2019-03-28T17:17:09.017Z,99.90
2019-03-28T17:19:35.479Z,99.90
2019-03-28T17:22:01.976Z,99.90
2019-03-28T17:24:28.634Z,99.90
2019-03-28T17:26:55.516Z,99.90
2019-03-28T17:29:22.013Z,99.90
2019-03-28T17:31:48.535Z,99.90
2019-03-28T17:34:15.035Z,99.90
2019-03-28T17:36:41.539Z,99.90
2019-03-28T17:39:08.172Z,99.90
2019-03-28T17:41:34.704Z,99.90
2019-03-28T17:44:01.239Z,99.90
2019-03-28T17:46:28.082Z,99.90
2019-03-28T17:48:57.532Z,99.90
2019-03-28T17:51:23.088Z,99.90
2019-03-28T17:53:49.458Z,99.90
2019-03-28T17:56:16.009Z,99.90
2019-03-28T17:58:42.485Z,99.90
2019-03-28T18:01:09.106Z,99.90
2019-03-28T18:03:35.463Z,99.90
2019-03-28T18:06:02.110Z,99.90
2019-03-28T18:08:28.591Z,99.90
2019-03-28T18:10:55.863Z,99.90
2019-03-28T18:13:22.446Z,99.90
2019-03-28T18:15:49.041Z,99.90
2019-03-28T18:18:15.535Z,99.90
2019-03-28T18:20:42.143Z,99.90
2019-03-28T18:23:08.535Z,99.90
2019-03-28T18:25:35.007Z,99.90
2019-03-28T18:28:01.510Z,99.90
2019-03-28T18:30:29.045Z,99.90
2019-03-28T18:32:55.430Z,99.90
2019-03-28T18:35:21.843Z,99.90
2019-03-28T18:37:48.359Z,99.90
2019-03-28T18:40:14.887Z,99.90
2019-03-28T18:42:41.250Z,99.90
2019-03-28T18:45:08.202Z,99.90
2019-03-28T18:47:34.585Z,99.90
2019-03-28T18:50:03.396Z,99.90
2019-03-28T18:52:29.351Z,99.90
2019-03-28T18:54:55.821Z,99.90
2019-03-28T18:57:23.536Z,99.90
2019-03-28T18:59:50.036Z,99.90
2019-03-28T19:02:19.932Z,99.90
2019-03-28T19:04:46.430Z,99.90
2019-03-28T19:07:12.815Z,99.90
2019-03-28T19:09:39.417Z,99.90
2019-03-28T19:12:06.013Z,99.90
2019-03-28T19:14:32.443Z,99.90
2019-03-28T19:16:58.955Z,99.90
2019-03-28T19:19:38.713Z,99.90
2019-03-28T19:21:55.850Z,99.90
2019-03-28T19:24:22.330Z,99.90
2019-03-28T19:26:48.872Z,99.90
2019-03-28T19:29:15.350Z,99.90
2019-03-28T19:31:41.795Z,99.90
2019-03-28T19:34:08.288Z,99.90
2019-03-28T19:36:34.851Z,99.90
2019-03-28T19:39:01.450Z,99.90
2019-03-28T19:41:27.861Z,99.90
2019-03-28T19:43:54.460Z,99.90
2019-03-28T19:46:21.013Z,99.90
2019-03-28T19:48:47.559Z,99.90
2019-03-28T19:51:14.016Z,99.90
2019-03-28T19:53:40.446Z,99.90
2019-03-28T19:56:07.073Z,99.90
2019-03-28T19:58:35.139Z,99.90
2019-03-28T20:01:01.655Z,99.90
2019-03-28T20:03:28.806Z,99.90
2019-03-28T20:05:55.384Z,99.90
2019-03-28T20:08:22.000Z,99.90
2019-03-28T20:10:48.354Z,99.90
2019-03-28T20:13:14.834Z,99.90
2019-03-28T20:15:41.250Z,99.90
2019-03-28T20:18:07.729Z,99.90
2019-03-28T20:20:34.198Z,99.90
2019-03-28T20:23:00.859Z,99.90
2019-03-28T20:25:27.334Z,99.90
2019-03-28T20:27:53.816Z,99.90
2019-03-28T20:30:20.975Z,99.90
2019-03-28T20:32:47.576Z,99.90
2019-03-28T20:35:14.195Z,99.90
2019-03-28T20:37:40.692Z,99.90
2019-03-28T20:40:07.614Z,99.90
2019-03-28T20:42:34.944Z,99.90
2019-03-28T20:45:01.604Z,99.90
2019-03-28T20:47:27.941Z,99.90
2019-03-28T20:49:54.214Z,99.90
2019-03-28T20:52:20.823Z,99.90
2019-03-28T20:54:47.205Z,99.90
2019-03-28T20:57:13.608Z,99.90
2019-03-28T20:59:40.079Z,99.90
2019-03-28T21:02:06.555Z,99.90
2019-03-28T21:04:34.388Z,99.90
2019-03-28T21:07:01.294Z,99.90
2019-03-28T21:09:27.890Z,99.90
2019-03-28T21:11:54.349Z,99.90
2019-03-28T21:14:20.849Z,99.90
2019-03-28T21:16:47.126Z,99.90
2019-03-28T21:19:13.699Z,99.90
2019-03-28T21:21:40.175Z,99.90
2019-03-28T21:24:06.536Z,99.90
2019-03-28T21:26:33.133Z,99.90
2019-03-28T21:28:59.431Z,99.90
2019-03-28T21:31:25.903Z,99.90
2019-03-28T21:33:54.877Z,99.90
2019-03-28T21:36:29.708Z,99.90
2019-03-28T21:38:48.662Z,99.90
2019-03-28T21:41:15.466Z,99.90
2019-03-28T21:43:41.819Z,99.90
2019-03-28T21:46:08.306Z,99.90
2019-03-28T21:48:34.676Z,99.90
2019-03-28T21:51:01.253Z,99.90
2019-03-28T21:53:27.857Z,99.90
2019-03-28T21:55:57.191Z,99.90
2019-03-28T21:58:22.460Z,99.90
2019-03-28T22:00:48.789Z,99.90
2019-03-28T22:03:15.167Z,99.90
2019-03-28T22:05:41.652Z,99.90
2019-03-28T22:08:08.117Z,99.90
2019-03-28T22:10:34.738Z,99.90
2019-03-28T22:13:01.129Z,99.90
2019-03-28T22:15:27.789Z,99.90
2019-03-28T22:17:54.265Z,99.90
2019-03-28T22:20:20.739Z,99.90
2019-03-28T22:22:47.308Z,99.90
2019-03-28T22:25:13.984Z,99.90
2019-03-28T22:27:40.381Z,99.90
2019-03-28T22:30:07.249Z,99.90
2019-03-28T22:32:33.738Z,99.90
2019-03-28T22:35:00.432Z,99.90
2019-03-28T22:37:26.969Z,99.90
2019-03-28T22:39:53.387Z,99.90
2019-03-28T22:42:19.745Z,99.90
2019-03-28T22:44:46.230Z,99.90
2019-03-28T22:47:12.737Z,99.90
2019-03-28T22:49:39.182Z,99.90
2019-03-28T22:52:05.565Z,99.90
2019-03-28T22:54:31.859Z,99.90
2019-03-28T22:56:59.338Z,99.90
2019-03-28T22:59:26.912Z,99.90
2019-03-28T23:01:53.729Z,99.90
2019-03-28T23:04:20.308Z,99.90
2019-03-28T23:06:46.795Z,99.90
2019-03-28T23:09:13.153Z,99.90
2019-03-28T23:11:40.596Z,99.90
2019-03-28T23:14:07.205Z,99.90
2019-03-28T23:16:33.593Z,99.90
2019-03-28T23:19:00.173Z,99.90
2019-03-28T23:21:26.522Z,99.90
2019-03-28T23:23:52.991Z,99.90
2019-03-28T23:26:19.350Z,99.90
2019-03-28T23:28:45.986Z,99.90
2019-03-28T23:31:12.325Z,99.90
2019-03-28T23:33:38.737Z,99.90
2019-03-28T23:36:05.109Z,99.90
2019-03-28T23:38:31.409Z,99.90
2019-03-28T23:40:57.763Z,99.90
2019-03-28T23:43:23.997Z,99.90
2019-03-28T23:45:50.501Z,99.90
2019-03-28T23:48:16.962Z,99.90
2019-03-28T23:50:43.221Z,99.90
2019-03-28T23:53:09.738Z,99.90
2019-03-28T23:55:36.134Z,99.90
2019-03-28T23:58:02.626Z,99.90
